createdAt,value
2023-05-07T00:00:42.201Z,99.99
2023-05-07T00:01:42.171Z,99.99
2023-05-07T00:02:42.203Z,99.99
2023-05-07T00:03:42.259Z,99.99
2023-05-07T00:04:42.165Z,99.99
2023-05-07T00:05:42.176Z,99.99
2023-05-07T00:06:42.118Z,99.99
2023-05-07T00:07:42.107Z,99.99
2023-05-07T00:08:42.098Z,99.99
2023-05-07T00:09:42.110Z,99.99
2023-05-07T00:10:42.076Z,99.99
2023-05-07T00:11:42.069Z,99.99
2023-05-07T00:12:42.064Z,99.99
2023-05-07T00:13:42.047Z,99.99
2023-05-07T00:14:42.047Z,99.99
2023-05-07T00:15:41.999Z,99.99
2023-05-07T00:16:42.013Z,99.99
2023-05-07T00:17:42.046Z,99.99
2023-05-07T00:18:42.017Z,99.99
2023-05-07T00:19:42.017Z,99.99
2023-05-07T00:20:41.966Z,99.99
2023-05-07T00:21:41.948Z,99.99
2023-05-07T00:22:41.936Z,99.99
2023-05-07T00:23:41.965Z,99.99
2023-05-07T00:24:41.909Z,99.99
2023-05-07T00:25:41.901Z,99.99
2023-05-07T00:26:41.883Z,99.99
2023-05-07T00:27:41.930Z,99.99
2023-05-07T00:28:41.911Z,99.99
2023-05-07T00:29:41.863Z,99.99
2023-05-07T00:30:41.851Z,99.99
2023-05-07T00:31:41.897Z,99.99
2023-05-07T00:32:41.888Z,99.99
2023-05-07T00:33:41.849Z,99.99
2023-05-07T00:34:41.801Z,99.99
2023-05-07T00:35:41.827Z,99.99
2023-05-07T00:36:41.782Z,99.99
2023-05-07T00:37:41.815Z,99.99
2023-05-07T00:38:41.768Z,99.99
2023-05-07T00:39:41.752Z,99.99
2023-05-07T00:40:41.733Z,99.99
2023-05-07T00:41:41.730Z,99.99
2023-05-07T00:42:41.764Z,99.99
2023-05-07T00:43:41.694Z,99.99
2023-05-07T00:44:41.697Z,99.99
2023-05-07T00:45:41.723Z,99.99
2023-05-07T00:46:41.680Z,99.99
2023-05-07T00:47:41.713Z,99.99
2023-05-07T00:48:41.640Z,99.99
2023-05-07T00:49:41.630Z,99.99
2023-05-07T00:50:41.622Z,99.99
2023-05-07T00:51:41.644Z,99.99
2023-05-07T00:52:41.594Z,99.99
2023-05-07T00:53:41.579Z,99.99
2023-05-07T00:54:41.571Z,99.99
2023-05-07T00:55:41.582Z,99.99
2023-05-07T00:56:41.557Z,99.99
2023-05-07T00:57:41.574Z,99.99
2023-05-07T00:58:41.527Z,99.99
2023-05-07T00:59:41.523Z,99.99
2023-05-07T01:00:41.538Z,99.99
2023-05-07T01:01:41.679Z,99.99
2023-05-07T01:02:41.506Z,99.99
2023-05-07T01:03:41.497Z,99.99
2023-05-07T01:04:41.526Z,99.99
2023-05-07T01:05:41.482Z,99.99
2023-05-07T01:06:41.438Z,99.99
2023-05-07T01:07:41.455Z,99.99
2023-05-07T01:08:41.420Z,99.99
2023-05-07T01:09:41.429Z,100.00
2023-05-07T01:10:41.444Z,100.00
2023-05-07T01:11:41.395Z,99.99
2023-05-07T01:12:41.493Z,99.99
2023-05-07T01:13:41.353Z,99.99
2023-05-07T01:14:41.355Z,99.99
2023-05-07T01:15:41.357Z,99.99
2023-05-07T01:16:41.341Z,100.00
2023-05-07T01:17:41.378Z,99.99
2023-05-07T01:18:41.307Z,99.99
2023-05-07T01:19:41.333Z,99.99
2023-05-07T01:20:41.283Z,99.99
2023-05-07T01:21:41.270Z,99.99
2023-05-07T01:22:41.267Z,99.99
2023-05-07T01:23:41.249Z,99.99
2023-05-07T01:24:41.261Z,99.99
2023-05-07T01:25:41.214Z,99.99
2023-05-07T01:26:41.207Z,99.99
2023-05-07T01:27:41.205Z,99.99
2023-05-07T01:28:41.236Z,99.99
2023-05-07T01:29:41.211Z,99.99
2023-05-07T01:30:41.156Z,99.99
2023-05-07T01:31:41.268Z,99.99
2023-05-07T01:32:41.195Z,99.99
2023-05-07T01:33:41.212Z,99.99
2023-05-07T01:34:41.126Z,99.99
2023-05-07T01:35:41.113Z,99.99
2023-05-07T01:36:41.104Z,99.99
2023-05-07T01:37:41.107Z,99.99
2023-05-07T01:38:41.137Z,99.99
2023-05-07T01:39:41.093Z,99.99
2023-05-07T01:40:41.040Z,99.99
2023-05-07T01:41:41.059Z,99.99
2023-05-07T01:42:41.071Z,99.99
2023-05-07T01:43:41.030Z,99.99
2023-05-07T01:44:40.989Z,99.99
2023-05-07T01:45:40.978Z,99.99
2023-05-07T01:46:41.036Z,99.99
2023-05-07T01:47:41.028Z,99.99
2023-05-07T01:48:40.974Z,99.99
2023-05-07T01:49:40.944Z,99.99
2023-05-07T01:50:40.935Z,99.99
2023-05-07T01:51:40.924Z,99.99
2023-05-07T01:52:40.956Z,99.99
2023-05-07T01:53:40.900Z,99.99
2023-05-07T01:54:40.890Z,99.99
2023-05-07T01:55:40.881Z,99.99
2023-05-07T01:56:40.920Z,99.99
2023-05-07T01:57:40.927Z,99.99
2023-05-07T01:58:40.855Z,99.99
2023-05-07T01:59:40.847Z,99.99
2023-05-07T02:00:40.809Z,99.99
2023-05-07T02:01:40.859Z,99.99
2023-05-07T02:02:40.926Z,99.99
2023-05-07T02:03:40.906Z,99.99
2023-05-07T02:04:40.786Z,99.99
2023-05-07T02:05:40.760Z,99.99
2023-05-07T02:06:40.764Z,99.99
2023-05-07T02:07:40.744Z,99.99
2023-05-07T02:08:40.790Z,99.99
2023-05-07T02:09:40.712Z,99.99
2023-05-07T02:10:40.702Z,99.99
2023-05-07T02:11:40.737Z,99.99
2023-05-07T02:12:40.672Z,99.99
2023-05-07T02:13:40.660Z,99.99
2023-05-07T02:14:40.646Z,99.99
2023-05-07T02:15:40.685Z,99.99
2023-05-07T02:16:40.702Z,99.99
2023-05-07T02:17:40.676Z,99.99
2023-05-07T02:18:40.607Z,99.99
2023-05-07T02:19:40.600Z,99.99
2023-05-07T02:20:40.617Z,99.99
2023-05-07T02:21:40.569Z,99.99
2023-05-07T02:22:40.576Z,99.99
2023-05-07T02:23:40.548Z,99.99
2023-05-07T02:24:40.538Z,99.99
2023-05-07T02:25:40.558Z,99.99
2023-05-07T02:26:40.513Z,99.99
2023-05-07T02:27:40.493Z,99.99
2023-05-07T02:28:40.500Z,99.99
2023-05-07T02:29:40.526Z,99.99
2023-05-07T02:30:40.499Z,99.99
2023-05-07T02:31:40.500Z,99.99
2023-05-07T02:32:40.476Z,99.99
2023-05-07T02:33:40.465Z,99.99
2023-05-07T02:34:40.478Z,99.99
2023-05-07T02:35:40.422Z,99.99
2023-05-07T02:36:40.412Z,99.99
2023-05-07T02:37:40.421Z,100.00
2023-05-07T02:38:40.392Z,99.99
2023-05-07T02:39:40.405Z,99.99
2023-05-07T02:40:40.398Z,99.99
2023-05-07T02:41:40.341Z,99.99
2023-05-07T02:42:40.343Z,99.99
2023-05-07T02:43:40.338Z,99.99
2023-05-07T02:44:40.338Z,99.99
2023-05-07T02:45:40.330Z,99.99
2023-05-07T02:46:40.297Z,99.99
2023-05-07T02:47:40.332Z,99.99
2023-05-07T02:48:40.293Z,99.99
2023-05-07T02:49:40.298Z,99.99
2023-05-07T02:50:40.271Z,99.99
2023-05-07T02:51:40.219Z,99.99
2023-05-07T02:52:40.213Z,99.99
2023-05-07T02:53:40.260Z,99.99
2023-05-07T02:54:40.205Z,99.99
2023-05-07T02:55:40.228Z,99.99
2023-05-07T02:56:40.186Z,99.99
2023-05-07T02:57:40.211Z,99.99
2023-05-07T02:58:40.183Z,99.99
2023-05-07T02:59:40.167Z,99.99
2023-05-07T03:00:40.130Z,99.99
2023-05-07T03:01:40.284Z,99.99
2023-05-07T03:02:40.112Z,99.99
2023-05-07T03:03:40.157Z,99.99
2023-05-07T03:04:40.136Z,99.99
2023-05-07T03:05:40.077Z,99.99
2023-05-07T03:06:40.073Z,99.99
2023-05-07T03:07:40.137Z,99.99
2023-05-07T03:08:40.081Z,99.99
2023-05-07T03:09:40.036Z,99.99
2023-05-07T03:10:40.046Z,99.99
2023-05-07T03:11:40.001Z,99.99
2023-05-07T03:12:40.057Z,99.99
2023-05-07T03:13:39.988Z,99.99
2023-05-07T03:14:39.951Z,99.99
2023-05-07T03:15:39.988Z,99.99
2023-05-07T03:16:39.937Z,99.99
2023-05-07T03:17:40.082Z,99.99
2023-05-07T03:18:39.968Z,99.99
2023-05-07T03:19:39.916Z,99.99
2023-05-07T03:20:39.980Z,99.99
2023-05-07T03:21:39.941Z,99.99
2023-05-07T03:22:39.913Z,99.99
2023-05-07T03:23:39.886Z,99.99
2023-05-07T03:24:39.855Z,99.99
2023-05-07T03:25:39.861Z,99.99
2023-05-07T03:26:39.872Z,99.99
2023-05-07T03:27:39.838Z,99.99
2023-05-07T03:28:39.809Z,99.99
2023-05-07T03:29:39.799Z,99.99
2023-05-07T03:30:39.797Z,99.99
2023-05-07T03:31:39.891Z,99.99
2023-05-07T03:32:39.829Z,99.99
2023-05-07T03:33:39.762Z,99.99
2023-05-07T03:34:39.745Z,99.99
2023-05-07T03:35:39.775Z,99.99
2023-05-07T03:36:39.771Z,99.99
2023-05-07T03:37:39.734Z,99.99
2023-05-07T03:38:39.709Z,99.99
2023-05-07T03:39:39.679Z,99.99
2023-05-07T03:40:39.726Z,99.99
2023-05-07T03:41:39.698Z,99.99
2023-05-07T03:42:39.653Z,99.99
2023-05-07T03:43:39.644Z,99.99
2023-05-07T03:44:39.605Z,99.99
2023-05-07T03:45:39.655Z,99.99
2023-05-07T03:46:39.644Z,99.99
2023-05-07T03:47:39.642Z,99.99
2023-05-07T03:48:39.585Z,99.99
2023-05-07T03:49:39.605Z,99.99
2023-05-07T03:50:39.594Z,99.99
2023-05-07T03:51:39.545Z,99.99
2023-05-07T03:52:39.557Z,99.99
2023-05-07T03:53:39.524Z,99.99
2023-05-07T03:54:39.553Z,99.99
2023-05-07T03:55:39.545Z,99.99
2023-05-07T03:56:39.513Z,99.99
2023-05-07T03:57:39.476Z,99.99
2023-05-07T03:58:39.492Z,99.99
2023-05-07T03:59:39.504Z,99.99
2023-05-07T04:00:39.532Z,99.99
2023-05-07T04:01:39.506Z,99.99
2023-05-07T04:02:39.639Z,99.99
2023-05-07T04:03:39.555Z,99.99
2023-05-07T04:04:39.454Z,99.99
2023-05-07T04:05:39.413Z,99.99
2023-05-07T04:06:39.396Z,99.99
2023-05-07T04:07:39.398Z,99.99
2023-05-07T04:08:39.344Z,99.99
2023-05-07T04:09:39.404Z,99.99
2023-05-07T04:10:39.366Z,99.99
2023-05-07T04:11:39.331Z,99.99
2023-05-07T04:12:39.372Z,99.99
2023-05-07T04:13:39.332Z,99.99
2023-05-07T04:14:39.335Z,99.99
2023-05-07T04:15:39.275Z,99.99
2023-05-07T04:16:39.321Z,99.99
2023-05-07T04:17:39.310Z,99.99
2023-05-07T04:18:39.287Z,99.99
2023-05-07T04:19:39.227Z,99.99
2023-05-07T04:20:39.227Z,99.99
2023-05-07T04:21:39.235Z,99.99
2023-05-07T04:22:39.215Z,99.99
2023-05-07T04:23:39.226Z,99.99
2023-05-07T04:24:39.178Z,99.99
2023-05-07T04:25:39.192Z,99.99
2023-05-07T04:26:39.164Z,100.00
2023-05-07T04:27:39.192Z,99.99
2023-05-07T04:28:39.177Z,99.99
2023-05-07T04:29:39.125Z,99.99
2023-05-07T04:30:39.111Z,99.99
2023-05-07T04:31:39.173Z,99.99
2023-05-07T04:32:39.144Z,99.99
2023-05-07T04:33:39.089Z,99.99
2023-05-07T04:34:39.061Z,99.99
2023-05-07T04:35:39.051Z,99.99
2023-05-07T04:36:39.034Z,99.99
2023-05-07T04:37:39.099Z,99.99
2023-05-07T04:38:39.024Z,99.99
2023-05-07T04:39:39.004Z,99.99
2023-05-07T04:40:38.993Z,99.99
2023-05-07T04:41:38.983Z,99.99
2023-05-07T04:42:39.006Z,99.99
2023-05-07T04:43:38.965Z,99.99
2023-05-07T04:44:38.956Z,99.99
2023-05-07T04:45:38.946Z,99.99
2023-05-07T04:46:38.983Z,99.99
2023-05-07T04:47:38.985Z,99.99
2023-05-07T04:48:38.890Z,99.99
2023-05-07T04:49:38.878Z,99.99
2023-05-07T04:50:38.883Z,99.99
2023-05-07T04:51:38.893Z,99.99
2023-05-07T04:52:38.854Z,99.99
2023-05-07T04:53:38.852Z,99.99
2023-05-07T04:54:38.842Z,99.99
2023-05-07T04:55:38.819Z,99.99
2023-05-07T04:56:38.839Z,99.99
2023-05-07T04:57:38.811Z,99.99
2023-05-07T04:58:38.786Z,99.99
2023-05-07T04:59:38.761Z,99.99
2023-05-07T05:00:38.790Z,99.99
2023-05-07T05:01:38.806Z,99.99
2023-05-07T05:02:38.807Z,99.99
2023-05-07T05:03:38.844Z,99.99
2023-05-07T05:04:38.724Z,99.99
2023-05-07T05:05:38.756Z,99.99
2023-05-07T05:06:38.709Z,99.99
2023-05-07T05:07:38.681Z,99.99
2023-05-07T05:08:38.667Z,99.99
2023-05-07T05:09:38.669Z,99.99
2023-05-07T05:10:38.681Z,99.99
2023-05-07T05:11:38.683Z,99.99
2023-05-07T05:12:38.664Z,99.99
2023-05-07T05:13:38.598Z,99.99
2023-05-07T05:14:38.633Z,99.99
2023-05-07T05:15:38.638Z,99.99
2023-05-07T05:16:38.736Z,99.99
2023-05-07T05:17:38.698Z,99.99
2023-05-07T05:18:38.570Z,99.99
2023-05-07T05:19:38.590Z,99.99
2023-05-07T05:20:38.538Z,99.99
2023-05-07T05:21:38.524Z,99.99
2023-05-07T05:22:38.505Z,99.99
2023-05-07T05:23:38.495Z,99.99
2023-05-07T05:24:38.538Z,99.99
2023-05-07T05:25:38.484Z,99.99
2023-05-07T05:26:38.457Z,99.99
2023-05-07T05:27:38.446Z,99.99
2023-05-07T05:28:38.451Z,99.99
2023-05-07T05:29:38.463Z,99.99
2023-05-07T05:30:38.413Z,99.99
2023-05-07T05:31:38.452Z,99.99
2023-05-07T05:32:38.422Z,99.99
2023-05-07T05:33:38.413Z,99.99
2023-05-07T05:34:38.423Z,99.99
2023-05-07T05:35:38.351Z,99.99
2023-05-07T05:36:38.340Z,99.99
2023-05-07T05:37:38.324Z,99.99
2023-05-07T05:38:38.374Z,99.99
2023-05-07T05:39:38.295Z,99.99
2023-05-07T05:40:38.299Z,99.99
2023-05-07T05:41:38.276Z,99.99
2023-05-07T05:42:38.265Z,99.99
2023-05-07T05:43:38.279Z,99.99
2023-05-07T05:44:38.242Z,99.99
2023-05-07T05:45:38.242Z,99.99
2023-05-07T05:46:38.289Z,99.99
2023-05-07T05:47:38.305Z,99.99
2023-05-07T05:48:38.240Z,99.99
2023-05-07T05:49:38.188Z,99.99
2023-05-07T05:50:38.184Z,99.99
2023-05-07T05:51:38.169Z,99.99
2023-05-07T05:52:38.200Z,99.99
2023-05-07T05:53:38.151Z,99.99
2023-05-07T05:54:38.142Z,99.99
2023-05-07T05:55:38.121Z,99.99
2023-05-07T05:56:38.126Z,99.99
2023-05-07T05:57:38.181Z,99.99
2023-05-07T05:58:38.084Z,99.99
2023-05-07T05:59:38.076Z,99.99
2023-05-07T06:00:38.067Z,99.99
2023-05-07T06:01:38.146Z,99.99
2023-05-07T06:02:38.321Z,99.99
2023-05-07T06:03:38.027Z,99.99
2023-05-07T06:04:38.103Z,99.99
2023-05-07T06:05:38.006Z,99.99
2023-05-07T06:06:38.112Z,99.99
2023-05-07T06:07:37.978Z,99.99
2023-05-07T06:08:37.973Z,99.99
2023-05-07T06:09:37.952Z,99.99
2023-05-07T06:10:37.999Z,99.99
2023-05-07T06:11:37.975Z,99.99
2023-05-07T06:12:37.953Z,99.99
2023-05-07T06:13:37.904Z,99.99
2023-05-07T06:14:37.894Z,99.99
2023-05-07T06:15:37.936Z,99.99
2023-05-07T06:16:37.956Z,99.99
2023-05-07T06:17:37.901Z,99.99
2023-05-07T06:18:37.838Z,99.99
2023-05-07T06:19:37.845Z,99.99
2023-05-07T06:20:37.879Z,99.99
2023-05-07T06:21:37.828Z,99.99
2023-05-07T06:22:37.813Z,99.99
2023-05-07T06:23:37.805Z,99.99
2023-05-07T06:24:37.802Z,99.99
2023-05-07T06:25:37.820Z,99.99
2023-05-07T06:26:37.766Z,99.99
2023-05-07T06:27:37.763Z,99.99
2023-05-07T06:28:37.745Z,99.99
2023-05-07T06:29:37.752Z,99.99
2023-05-07T06:30:37.765Z,99.99
2023-05-07T06:31:37.745Z,99.99
2023-05-07T06:32:37.730Z,99.99
2023-05-07T06:33:37.690Z,99.99
2023-05-07T06:34:37.712Z,99.99
2023-05-07T06:35:37.671Z,99.99
2023-05-07T06:36:37.651Z,99.99
2023-05-07T06:37:37.631Z,99.99
2023-05-07T06:38:37.637Z,99.99
2023-05-07T06:39:37.646Z,99.99
2023-05-07T06:40:37.606Z,99.99
2023-05-07T06:41:37.627Z,99.99
2023-05-07T06:42:37.572Z,99.99
2023-05-07T06:43:37.614Z,99.99
2023-05-07T06:44:37.586Z,99.99
2023-05-07T06:45:37.551Z,99.99
2023-05-07T06:46:37.581Z,99.99
2023-05-07T06:47:37.572Z,99.99
2023-05-07T06:48:37.550Z,99.99
2023-05-07T06:49:37.505Z,99.99
2023-05-07T06:50:37.493Z,99.99
2023-05-07T06:51:37.470Z,99.99
2023-05-07T06:52:37.456Z,99.99
2023-05-07T06:53:37.512Z,99.99
2023-05-07T06:54:37.442Z,99.99
2023-05-07T06:55:37.437Z,99.99
2023-05-07T06:56:37.438Z,99.99
2023-05-07T06:57:37.456Z,99.99
2023-05-07T06:58:37.423Z,99.99
2023-05-07T06:59:37.379Z,99.99
2023-05-07T07:00:37.361Z,99.99
2023-05-07T07:01:37.426Z,99.99
2023-05-07T07:02:37.411Z,99.99
2023-05-07T07:03:37.319Z,99.99
2023-05-07T07:04:37.360Z,99.99
2023-05-07T07:05:37.321Z,99.99
2023-05-07T07:06:37.301Z,99.99
2023-05-07T07:07:37.339Z,99.99
2023-05-07T07:08:37.276Z,99.99
2023-05-07T07:09:37.265Z,99.99
2023-05-07T07:10:37.264Z,99.79
2023-05-07T07:11:37.276Z,99.99
2023-05-07T07:12:37.358Z,99.99
2023-05-07T07:13:37.222Z,99.43
2023-05-07T07:14:37.193Z,99.99
2023-05-07T07:15:37.306Z,99.99
2023-05-07T07:16:37.261Z,99.99
2023-05-07T07:17:37.201Z,99.74
2023-05-07T07:18:37.151Z,99.99
2023-05-07T07:19:37.135Z,99.99
2023-05-07T07:20:37.123Z,99.99
2023-05-07T07:21:37.192Z,99.99
2023-05-07T07:22:37.113Z,99.79
2023-05-07T07:23:37.107Z,99.99
2023-05-07T07:24:37.092Z,99.99
2023-05-07T07:25:37.120Z,99.99
2023-05-07T07:26:37.097Z,99.85
2023-05-07T07:27:37.082Z,98.83
2023-05-07T07:28:37.063Z,98.62
2023-05-07T07:29:37.048Z,98.62
2023-05-07T07:30:37.053Z,98.99
2023-05-07T07:31:37.004Z,98.00
2023-05-07T07:32:37.035Z,98.42
2023-05-07T07:33:36.990Z,98.72
2023-05-07T07:34:37.012Z,98.27
2023-05-07T07:35:37.017Z,98.68
2023-05-07T07:36:45.641Z,98.58
2023-05-07T07:37:37.937Z,98.21
2023-05-07T07:38:36.949Z,98.78
2023-05-07T07:39:36.960Z,98.07
2023-05-07T07:40:36.889Z,98.07
2023-05-07T07:41:36.893Z,97.75
2023-05-07T07:42:36.894Z,97.40
2023-05-07T07:43:36.875Z,96.07
2023-05-07T07:44:36.913Z,95.51
2023-05-07T07:45:36.861Z,95.51
2023-05-07T07:46:36.956Z,96.13
2023-05-07T07:47:36.886Z,95.78
2023-05-07T07:48:36.839Z,94.96
2023-05-07T07:49:36.834Z,94.49
2023-05-07T07:50:44.514Z,95.47
2023-05-07T07:51:37.764Z,94.96
2023-05-07T07:52:36.766Z,94.92
2023-05-07T07:53:36.791Z,93.84
2023-05-07T07:54:36.743Z,94.92
2023-05-07T07:55:36.735Z,94.71
2023-05-07T07:56:36.731Z,93.89
2023-05-07T07:57:36.700Z,95.53
2023-05-07T07:58:36.741Z,94.56
2023-05-07T07:59:36.697Z,93.24
2023-05-07T08:00:36.667Z,94.06
2023-05-07T08:01:36.673Z,93.59
2023-05-07T08:02:36.810Z,92.91
2023-05-07T08:03:36.764Z,94.30
2023-05-07T08:04:36.903Z,93.38
2023-05-07T08:05:36.610Z,92.19
2023-05-07T08:06:36.661Z,93.22
2023-05-07T08:07:36.641Z,93.93
2023-05-07T08:08:36.610Z,93.73
2023-05-07T08:09:36.570Z,94.14
2023-05-07T08:10:36.567Z,94.40
2023-05-07T08:11:36.556Z,93.69
2023-05-07T08:12:36.600Z,92.71
2023-05-07T08:13:36.560Z,93.93
2023-05-07T08:14:36.512Z,94.24
2023-05-07T08:15:36.526Z,93.43
2023-05-07T08:16:36.578Z,94.10
2023-05-07T08:17:36.524Z,93.38
2023-05-07T08:18:36.453Z,92.91
2023-05-07T08:19:36.452Z,93.59
2023-05-07T08:20:36.454Z,92.66
2023-05-07T08:21:36.475Z,93.18
2023-05-07T08:22:36.446Z,92.36
2023-05-07T08:23:36.411Z,92.77
2023-05-07T08:24:36.401Z,92.15
2023-05-07T08:25:36.402Z,93.48
2023-05-07T08:26:36.405Z,92.93
2023-05-07T08:27:36.368Z,91.70
2023-05-07T08:28:36.361Z,91.74
2023-05-07T08:29:36.354Z,92.42
2023-05-07T08:30:36.368Z,92.36
2023-05-07T08:31:36.371Z,92.77
2023-05-07T08:32:36.374Z,92.77
2023-05-07T08:33:36.305Z,92.83
2023-05-07T08:34:36.312Z,92.42
2023-05-07T08:35:36.295Z,92.15
2023-05-07T08:36:36.292Z,92.66
2023-05-07T08:37:36.268Z,91.95
2023-05-07T08:38:36.240Z,91.95
2023-05-07T08:39:36.252Z,92.56
2023-05-07T08:40:36.272Z,91.95
2023-05-07T08:41:36.202Z,92.46
2023-05-07T08:42:36.190Z,91.95
2023-05-07T08:43:36.205Z,91.54
2023-05-07T08:44:36.211Z,92.11
2023-05-07T08:45:36.178Z,91.54
2023-05-07T08:46:36.188Z,91.60
2023-05-07T08:47:36.151Z,90.92
2023-05-07T08:48:36.126Z,90.62
2023-05-07T08:49:36.139Z,89.90
2023-05-07T08:50:36.096Z,90.92
2023-05-07T08:51:36.081Z,90.88
2023-05-07T08:52:36.083Z,90.12
2023-05-07T08:53:36.102Z,89.88
2023-05-07T08:54:36.076Z,89.26
2023-05-07T08:55:36.042Z,88.10
2023-05-07T08:56:36.030Z,87.49
2023-05-07T08:57:36.009Z,86.77
2023-05-07T08:58:36.062Z,86.88
2023-05-07T08:59:36.023Z,86.26
2023-05-07T09:00:35.977Z,85.92
2023-05-07T09:01:36.000Z,85.96
2023-05-07T09:02:35.975Z,86.22
2023-05-07T09:03:36.064Z,86.02
2023-05-07T09:04:35.934Z,85.77
2023-05-07T09:05:35.927Z,86.18
2023-05-07T09:06:35.914Z,85.21
2023-05-07T09:07:35.909Z,85.71
2023-05-07T09:08:35.920Z,85.88
2023-05-07T09:09:35.889Z,84.96
2023-05-07T09:10:35.860Z,85.22
2023-05-07T09:11:35.852Z,84.04
2023-05-07T09:12:35.886Z,84.86
2023-05-07T09:13:35.864Z,86.33
2023-05-07T09:14:35.817Z,84.39
2023-05-07T09:15:35.800Z,85.30
2023-05-07T09:16:35.803Z,84.90
2023-05-07T09:17:35.878Z,85.71
2023-05-07T09:18:35.755Z,85.37
2023-05-07T09:19:35.746Z,85.77
2023-05-07T09:20:35.755Z,85.02
2023-05-07T09:21:35.745Z,85.22
2023-05-07T09:22:35.746Z,84.82
2023-05-07T09:23:35.720Z,83.86
2023-05-07T09:24:35.703Z,84.53
2023-05-07T09:25:35.694Z,84.23
2023-05-07T09:26:35.731Z,82.97
2023-05-07T09:27:35.711Z,84.09
2023-05-07T09:28:35.666Z,84.64
2023-05-07T09:29:35.640Z,83.84
2023-05-07T09:30:35.642Z,83.54
2023-05-07T09:31:35.719Z,82.05
2023-05-07T09:32:35.627Z,83.74
2023-05-07T09:33:35.593Z,82.15
2023-05-07T09:34:35.577Z,82.46
2023-05-07T09:35:35.582Z,82.66
2023-05-07T09:36:35.589Z,83.37
2023-05-07T09:37:35.594Z,82.46
2023-05-07T09:38:35.536Z,84.23
2023-05-07T09:39:35.524Z,83.92
2023-05-07T09:40:35.558Z,84.64
2023-05-07T09:41:35.540Z,84.43
2023-05-07T09:42:35.498Z,83.62
2023-05-07T09:43:35.499Z,83.65
2023-05-07T09:44:35.481Z,83.96
2023-05-07T09:45:35.551Z,84.58
2023-05-07T09:46:35.458Z,83.96
2023-05-07T09:47:35.507Z,83.80
2023-05-07T09:48:35.434Z,85.84
2023-05-07T09:49:35.437Z,84.84
2023-05-07T09:50:35.418Z,83.62
2023-05-07T09:51:35.389Z,83.92
2023-05-07T09:52:35.372Z,82.87
2023-05-07T09:53:35.378Z,82.35
2023-05-07T09:54:35.361Z,82.76
2023-05-07T09:55:35.394Z,82.05
2023-05-07T09:56:35.354Z,81.74
2023-05-07T09:57:35.332Z,81.95
2023-05-07T09:58:35.304Z,82.66
2023-05-07T09:59:35.343Z,81.91
2023-05-07T10:00:35.337Z,80.69
2023-05-07T10:01:35.333Z,82.21
2023-05-07T10:02:35.319Z,82.26
2023-05-07T10:03:35.284Z,81.85
2023-05-07T10:04:35.295Z,81.99
2023-05-07T10:05:35.248Z,83.04
2023-05-07T10:06:35.227Z,83.65
2023-05-07T10:07:35.230Z,82.68
2023-05-07T10:08:35.240Z,84.61
2023-05-07T10:09:35.219Z,83.29
2023-05-07T10:10:35.186Z,83.53
2023-05-07T10:11:35.177Z,84.61
2023-05-07T10:12:35.209Z,85.39
2023-05-07T10:13:35.208Z,82.84
2023-05-07T10:14:35.146Z,83.65
2023-05-07T10:15:35.117Z,83.76
2023-05-07T10:16:35.105Z,83.65
2023-05-07T10:17:35.133Z,83.90
2023-05-07T10:18:35.159Z,84.82
2023-05-07T10:19:35.082Z,84.61
2023-05-07T10:20:35.043Z,83.70
2023-05-07T10:21:35.049Z,84.66
2023-05-07T10:22:35.064Z,84.04
2023-05-07T10:23:35.085Z,84.04
2023-05-07T10:24:35.083Z,84.04
2023-05-07T10:25:35.025Z,84.45
2023-05-07T10:26:35.027Z,84.51
2023-05-07T10:27:35.015Z,83.23
2023-05-07T10:28:34.986Z,84.14
2023-05-07T10:29:35.101Z,83.94
2023-05-07T10:30:36.792Z,84.51
2023-05-07T10:31:35.034Z,83.23
2023-05-07T10:32:35.009Z,84.49
2023-05-07T10:33:34.918Z,85.21
2023-05-07T10:34:34.906Z,84.59
2023-05-07T10:35:34.921Z,85.30
2023-05-07T10:36:36.946Z,85.06
2023-05-07T10:37:34.906Z,85.16
2023-05-07T10:38:34.860Z,84.14
2023-05-07T10:39:34.861Z,84.96
2023-05-07T10:40:34.838Z,85.47
2023-05-07T10:41:34.860Z,85.06
2023-05-07T10:42:34.828Z,84.34
2023-05-07T10:43:34.804Z,84.80
2023-05-07T10:44:34.813Z,85.35
2023-05-07T10:45:34.792Z,85.49
2023-05-07T10:46:34.867Z,86.20
2023-05-07T10:47:34.764Z,86.41
2023-05-07T10:48:34.785Z,86.26
2023-05-07T10:49:34.719Z,85.96
2023-05-07T10:50:34.779Z,86.06
2023-05-07T10:51:34.739Z,85.75
2023-05-07T10:52:34.712Z,85.35
2023-05-07T10:53:34.669Z,85.61
2023-05-07T10:54:36.309Z,85.00
2023-05-07T10:55:34.710Z,84.66
2023-05-07T10:56:34.657Z,83.53
2023-05-07T10:57:34.633Z,84.25
2023-05-07T10:58:34.660Z,83.53
2023-05-07T10:59:34.611Z,84.18
2023-05-07T11:00:39.372Z,84.25
2023-05-07T11:01:34.617Z,84.66
2023-05-07T11:02:34.618Z,84.28
2023-05-07T11:03:34.585Z,84.49
2023-05-07T11:04:34.632Z,84.80
2023-05-07T11:05:37.329Z,84.39
2023-05-07T11:06:34.551Z,84.69
2023-05-07T11:07:34.527Z,84.42
2023-05-07T11:08:34.527Z,85.21
2023-05-07T11:09:34.600Z,84.28
2023-05-07T11:10:34.510Z,84.18
2023-05-07T11:11:36.105Z,85.68
2023-05-07T11:12:34.483Z,83.94
2023-05-07T11:13:34.453Z,84.28
2023-05-07T11:14:34.485Z,85.00
2023-05-07T11:15:34.430Z,85.41
2023-05-07T11:16:34.441Z,85.04
2023-05-07T11:17:37.013Z,86.12
2023-05-07T11:18:34.419Z,85.10
2023-05-07T11:19:34.402Z,84.39
2023-05-07T11:20:34.372Z,83.43
2023-05-07T11:21:34.351Z,83.59
2023-05-07T11:22:34.358Z,82.84
2023-05-07T11:23:34.389Z,81.68
2023-05-07T11:24:34.335Z,83.07
2023-05-07T11:25:34.334Z,80.59
2023-05-07T11:26:34.336Z,80.32
2023-05-07T11:27:34.294Z,81.48
2023-05-07T11:28:34.332Z,81.38
2023-05-07T11:29:34.283Z,81.41
2023-05-07T11:30:34.256Z,82.74
2023-05-07T11:31:38.952Z,83.21
2023-05-07T11:32:34.350Z,81.95
2023-05-07T11:33:34.332Z,81.68
2023-05-07T11:34:34.215Z,81.88
2023-05-07T11:35:36.908Z,81.68
2023-05-07T11:36:34.219Z,82.40
2023-05-07T11:37:34.212Z,81.82
2023-05-07T11:38:34.175Z,82.74
2023-05-07T11:39:34.177Z,82.54
2023-05-07T11:40:34.181Z,81.99
2023-05-07T11:41:34.185Z,82.33
2023-05-07T11:42:34.170Z,83.25
2023-05-07T11:43:34.130Z,83.51
2023-05-07T11:44:34.096Z,82.57
2023-05-07T11:45:34.125Z,83.90
2023-05-07T11:46:34.095Z,83.90
2023-05-07T11:47:34.148Z,83.73
2023-05-07T11:48:34.096Z,84.55
2023-05-07T11:49:34.034Z,84.59
2023-05-07T11:50:34.033Z,84.08
2023-05-07T11:51:34.063Z,85.82
2023-05-07T11:52:34.062Z,84.66
2023-05-07T11:53:34.001Z,83.73
2023-05-07T11:54:34.005Z,83.02
2023-05-07T11:55:33.963Z,83.70
2023-05-07T11:56:34.046Z,84.61
2023-05-07T11:57:33.946Z,84.11
2023-05-07T11:58:33.962Z,83.84
2023-05-07T11:59:33.941Z,84.55
2023-05-07T12:00:33.932Z,84.04
2023-05-07T12:01:33.933Z,82.41
2023-05-07T12:02:33.969Z,82.68
2023-05-07T12:03:36.511Z,82.64
2023-05-07T12:04:33.889Z,82.50
2023-05-07T12:05:33.880Z,80.11
2023-05-07T12:06:33.894Z,79.06
2023-05-07T12:07:33.852Z,78.08
2023-05-07T12:08:33.830Z,77.12
2023-05-07T12:09:33.825Z,76.72
2023-05-07T12:10:33.851Z,77.80
2023-05-07T12:11:33.856Z,75.49
2023-05-07T12:12:33.803Z,72.61
2023-05-07T12:13:33.782Z,73.63
2023-05-07T12:14:33.759Z,73.39
2023-05-07T12:15:33.779Z,70.86
2023-05-07T12:16:33.805Z,70.72
2023-05-07T12:17:33.820Z,71.16
2023-05-07T12:18:33.734Z,70.72
2023-05-07T12:19:33.717Z,73.39
2023-05-07T12:20:33.725Z,71.40
2023-05-07T12:21:33.753Z,71.03
2023-05-07T12:22:33.702Z,71.70
2023-05-07T12:23:33.652Z,70.11
2023-05-07T12:24:33.695Z,70.62
2023-05-07T12:25:33.672Z,71.16
2023-05-07T12:26:33.635Z,72.21
2023-05-07T12:27:33.609Z,73.83
2023-05-07T12:28:33.637Z,72.96
2023-05-07T12:29:33.619Z,72.96
2023-05-07T12:30:33.584Z,75.09
2023-05-07T12:31:33.619Z,73.57
2023-05-07T12:32:33.605Z,73.91
2023-05-07T12:33:33.552Z,75.40
2023-05-07T12:34:33.632Z,76.48
2023-05-07T12:35:33.523Z,75.06
2023-05-07T12:36:33.558Z,74.85
2023-05-07T12:37:33.522Z,76.11
2023-05-07T12:38:33.510Z,76.21
2023-05-07T12:39:33.526Z,75.91
2023-05-07T12:40:33.487Z,75.81
2023-05-07T12:41:33.538Z,77.44
2023-05-07T12:42:33.444Z,76.52
2023-05-07T12:43:33.460Z,76.52
2023-05-07T12:44:33.417Z,76.79
2023-05-07T12:45:33.430Z,76.59
2023-05-07T12:46:33.455Z,76.38
2023-05-07T12:47:33.426Z,75.91
2023-05-07T12:48:33.416Z,75.50
2023-05-07T12:49:33.383Z,74.89
2023-05-07T12:50:33.368Z,75.81
2023-05-07T12:51:33.339Z,75.43
2023-05-07T12:52:33.373Z,75.64